createdAt,value
2018-12-17T00:02:11.980Z,39.83
2018-12-17T00:04:37.812Z,40.10
2018-12-17T00:07:03.670Z,40.17
2018-12-17T00:09:29.405Z,40.50
2018-12-17T00:11:55.166Z,41.67
2018-12-17T00:14:20.904Z,40.77
2018-12-17T00:16:46.732Z,38.87
2018-12-17T00:19:12.575Z,41.53
2018-12-17T00:21:38.310Z,38.37
2018-12-17T00:24:04.056Z,37.50
2018-12-17T00:26:29.791Z,40.23
2018-12-17T00:28:55.565Z,39.97
2018-12-17T00:31:21.303Z,39.13
2018-12-17T00:33:47.167Z,39.50
2018-12-17T00:36:12.922Z,40.83
2018-12-17T00:38:38.784Z,41.67
2018-12-17T00:41:04.791Z,40.13
2018-12-17T00:43:30.951Z,39.03
2018-12-17T00:45:56.695Z,42.48
2018-12-17T00:48:22.651Z,45.20
2018-12-17T00:50:48.385Z,42.43
2018-12-17T00:53:14.122Z,38.30
2018-12-17T00:55:39.960Z,38.73
2018-12-17T00:58:05.814Z,39.87
2018-12-17T01:00:31.550Z,39.60
2018-12-17T01:02:57.535Z,41.97
2018-12-17T01:05:23.375Z,41.07
2018-12-17T01:07:49.203Z,40.57
2018-12-17T01:10:15.042Z,41.43
2018-12-17T01:12:40.784Z,41.77
2018-12-17T01:15:06.841Z,45.80
2018-12-17T01:17:32.683Z,43.50
2018-12-17T01:19:58.449Z,42.80
2018-12-17T01:22:24.184Z,41.03
2018-12-17T01:24:49.942Z,42.90
2018-12-17T01:27:15.794Z,40.00
2018-12-17T01:29:41.539Z,42.33
2018-12-17T01:32:07.376Z,42.30
2018-12-17T01:34:33.108Z,42.03
2018-12-17T01:36:58.934Z,39.77
2018-12-17T01:39:24.708Z,42.60
2018-12-17T01:41:50.445Z,41.77
2018-12-17T01:44:16.199Z,40.87
2018-12-17T01:46:41.945Z,38.37
2018-12-17T01:49:07.698Z,39.30
2018-12-17T01:51:33.548Z,42.43
2018-12-17T01:53:59.287Z,40.70
2018-12-17T01:56:25.054Z,44.17
2018-12-17T01:58:50.786Z,39.63
2018-12-17T02:01:16.530Z,38.57
2018-12-17T02:03:42.295Z,45.97
2018-12-17T02:06:08.147Z,45.33
2018-12-17T02:08:34.020Z,40.90
2018-12-17T02:10:59.980Z,40.83
2018-12-17T02:13:25.716Z,43.77
2018-12-17T02:15:51.564Z,41.77
2018-12-17T02:18:17.403Z,43.70
2018-12-17T02:20:43.163Z,45.60
2018-12-17T02:23:08.903Z,44.90
2018-12-17T02:25:34.658Z,42.63
2018-12-17T02:28:00.587Z,41.93
2018-12-17T02:30:26.320Z,45.87
2018-12-17T02:32:52.170Z,41.17
2018-12-17T02:35:18.056Z,42.43
2018-12-17T02:37:43.828Z,44.83
2018-12-17T02:40:09.583Z,42.57
2018-12-17T02:42:35.388Z,42.00
2018-12-17T02:45:01.487Z,42.27
2018-12-17T02:47:27.210Z,44.98
2018-12-17T02:49:52.959Z,43.37
2018-12-17T02:52:18.700Z,41.20
2018-12-17T02:54:51.320Z,40.53
2018-12-17T02:57:17.077Z,42.73
2018-12-17T02:59:42.836Z,40.67
2018-12-17T03:02:08.804Z,41.00
2018-12-17T03:04:34.624Z,39.13
2018-12-17T03:07:00.368Z,42.63
2018-12-17T03:09:26.101Z,41.67
2018-12-17T03:11:51.944Z,41.47
2018-12-17T03:14:17.694Z,40.80
2018-12-17T03:16:43.449Z,43.37
2018-12-17T03:19:09.194Z,43.83
2018-12-17T03:21:35.050Z,43.03
2018-12-17T03:24:01.009Z,42.37
2018-12-17T03:26:26.943Z,42.58
2018-12-17T03:28:52.696Z,39.73
2018-12-17T03:31:18.449Z,41.70
2018-12-17T03:33:44.392Z,43.63
2018-12-17T03:36:10.147Z,43.50
2018-12-17T03:38:35.898Z,43.17
2018-12-17T03:41:01.966Z,46.73
2018-12-17T03:43:27.706Z,43.00
2018-12-17T03:45:53.560Z,44.63
2018-12-17T03:48:19.431Z,45.27
2018-12-17T03:50:45.423Z,42.77
2018-12-17T03:53:11.167Z,45.13
2018-12-17T03:55:36.899Z,46.13
2018-12-17T03:58:02.776Z,49.43
2018-12-17T04:00:28.515Z,47.67
2018-12-17T04:02:54.281Z,45.30
2018-12-17T04:05:20.021Z,44.23
2018-12-17T04:07:45.760Z,47.00
2018-12-17T04:10:11.693Z,45.37
2018-12-17T04:12:37.527Z,45.47
2018-12-17T04:15:04.457Z,53.63
2018-12-17T04:17:30.191Z,50.05
2018-12-17T04:19:56.014Z,52.57
2018-12-17T04:22:21.838Z,46.93
2018-12-17T04:24:47.570Z,54.63
2018-12-17T04:27:13.304Z,51.30
2018-12-17T04:29:39.055Z,50.80
2018-12-17T04:32:04.801Z,49.23
2018-12-17T04:34:30.665Z,52.03
2018-12-17T04:36:56.389Z,58.37
2018-12-17T04:39:22.328Z,50.07
2018-12-17T04:41:48.047Z,51.53
2018-12-17T04:44:13.782Z,54.70
2018-12-17T04:46:39.495Z,51.47
2018-12-17T04:49:05.219Z,56.00
2018-12-17T04:51:31.160Z,56.33
2018-12-17T04:53:56.893Z,57.77
2018-12-17T04:56:22.810Z,53.57
2018-12-17T04:58:48.534Z,57.27
2018-12-17T05:01:14.246Z,61.63
2018-12-17T05:03:39.976Z,59.73
2018-12-17T05:06:05.794Z,61.10
2018-12-17T05:08:31.630Z,58.23
2018-12-17T05:10:57.351Z,70.53
2018-12-17T05:13:23.079Z,59.53
2018-12-17T05:15:48.799Z,57.17
2018-12-17T05:18:14.519Z,63.37
2018-12-17T05:20:40.243Z,56.87
2018-12-17T05:23:05.984Z,52.93
2018-12-17T05:25:31.720Z,59.27
2018-12-17T05:27:57.462Z,62.43
2018-12-17T05:30:23.182Z,56.07
2018-12-17T05:32:48.911Z,59.70
2018-12-17T05:35:14.658Z,59.07
2018-12-17T05:37:40.383Z,57.67
2018-12-17T05:40:06.414Z,59.17
2018-12-17T05:42:32.135Z,61.77
2018-12-17T05:44:57.876Z,61.50
2018-12-17T05:47:23.603Z,67.50
2018-12-17T05:49:49.340Z,67.90
2018-12-17T05:52:15.159Z,64.23
2018-12-17T05:54:40.997Z,58.20
2018-12-17T05:57:06.718Z,68.13
2018-12-17T05:59:32.446Z,64.20
2018-12-17T06:01:58.174Z,62.97
2018-12-17T06:04:23.991Z,64.40
2018-12-17T06:06:49.715Z,60.27
2018-12-17T06:09:22.594Z,66.37
2018-12-17T06:11:48.519Z,64.10
2018-12-17T06:14:14.243Z,66.53
2018-12-17T06:16:39.959Z,65.27
2018-12-17T06:19:05.777Z,72.13
2018-12-17T06:21:31.507Z,70.30
2018-12-17T06:23:57.255Z,72.97
2018-12-17T06:26:23.090Z,67.73
2018-12-17T06:28:48.811Z,72.27
2018-12-17T06:31:14.634Z,74.47
2018-12-17T06:33:40.447Z,69.20
2018-12-17T06:36:06.271Z,72.37
2018-12-17T06:38:31.994Z,75.67
2018-12-17T06:40:57.827Z,72.13
2018-12-17T06:43:23.551Z,67.53
2018-12-17T06:45:49.287Z,78.57
2018-12-17T06:48:17.209Z,73.73
2018-12-17T06:50:42.842Z,70.83
2018-12-17T06:53:08.575Z,73.90
2018-12-17T06:55:34.399Z,76.30
2018-12-17T06:58:00.525Z,65.93
2018-12-17T07:00:26.293Z,74.95
2018-12-17T07:02:52.075Z,71.47
2018-12-17T07:05:17.897Z,79.13
2018-12-17T07:07:43.621Z,80.70
2018-12-17T07:10:09.455Z,70.27
2018-12-17T07:12:35.182Z,71.43
2018-12-17T07:15:00.990Z,76.00
2018-12-17T07:17:26.819Z,77.43
2018-12-17T07:19:54.137Z,74.53
2018-12-17T07:22:20.098Z,82.40
2018-12-17T07:24:45.818Z,72.47
2018-12-17T07:27:11.599Z,77.53
2018-12-17T07:29:37.422Z,70.07
2018-12-17T07:32:03.375Z,70.47
2018-12-17T07:34:29.311Z,84.10
2018-12-17T07:36:55.964Z,77.77
2018-12-17T07:39:21.798Z,77.92
2018-12-17T07:41:47.638Z,83.80
2018-12-17T07:44:13.466Z,84.93
2018-12-17T07:46:39.267Z,73.27
2018-12-17T07:49:05.107Z,84.83
2018-12-17T07:51:30.889Z,80.43
2018-12-17T07:53:56.686Z,74.23
2018-12-17T07:56:22.515Z,81.73
2018-12-17T07:58:48.359Z,87.97
2018-12-17T08:01:14.112Z,78.27
2018-12-17T08:03:39.831Z,81.37
2018-12-17T08:06:05.669Z,78.67
2018-12-17T08:08:35.371Z,77.70
2018-12-17T08:10:59.243Z,77.12
2018-12-17T08:13:25.075Z,76.03
2018-12-17T08:15:50.795Z,86.40
2018-12-17T08:18:20.879Z,84.67
2018-12-17T08:20:47.498Z,94.00
2018-12-17T08:23:13.330Z,91.90
2018-12-17T08:25:39.057Z,92.00
2018-12-17T08:28:04.899Z,93.13
2018-12-17T08:30:30.718Z,93.57
2018-12-17T08:32:56.447Z,85.70
2018-12-17T08:35:22.162Z,96.73
2018-12-17T08:37:47.914Z,86.83
2018-12-17T08:40:13.649Z,82.43
2018-12-17T08:42:39.379Z,97.07
2018-12-17T08:45:05.254Z,91.27
2018-12-17T08:47:30.995Z,94.40
2018-12-17T08:49:56.710Z,91.70
2018-12-17T08:52:22.458Z,91.40
2018-12-17T08:54:48.486Z,93.87
2018-12-17T08:57:14.221Z,97.42
2018-12-17T08:59:39.937Z,100.30
2018-12-17T09:02:05.765Z,110.87
2018-12-17T09:04:31.589Z,104.30
2018-12-17T09:06:57.298Z,81.57
2018-12-17T09:09:23.068Z,92.47
2018-12-17T09:11:48.910Z,92.53
2018-12-17T09:14:14.637Z,89.77
2018-12-17T09:16:40.379Z,99.93
2018-12-17T09:19:08.136Z,102.60
2018-12-17T09:21:33.870Z,92.97
2018-12-17T09:23:59.699Z,97.73
2018-12-17T09:26:25.542Z,108.47
2018-12-17T09:28:51.263Z,102.93
2018-12-17T09:31:16.983Z,85.80
2018-12-17T09:33:42.999Z,96.77
2018-12-17T09:36:08.822Z,97.78
2018-12-17T09:38:34.555Z,95.83
2018-12-17T09:41:00.396Z,93.93
2018-12-17T09:43:26.127Z,91.40
2018-12-17T09:45:51.962Z,92.00
2018-12-17T09:48:17.835Z,100.63
2018-12-17T09:50:43.554Z,92.13
2018-12-17T09:53:09.376Z,92.23
2018-12-17T09:55:36.361Z,100.37
2018-12-17T09:58:02.544Z,99.50
2018-12-17T10:00:28.284Z,98.90
2018-12-17T10:02:54.059Z,92.23
2018-12-17T10:05:19.887Z,102.50
2018-12-17T10:07:45.638Z,101.73
2018-12-17T10:10:11.467Z,97.97
2018-12-17T10:12:37.183Z,106.27
2018-12-17T10:15:03.816Z,107.33
2018-12-17T10:17:29.538Z,97.97
2018-12-17T10:19:55.271Z,110.13
2018-12-17T10:22:20.997Z,108.27
2018-12-17T10:24:46.846Z,110.10
2018-12-17T10:27:12.670Z,98.20
2018-12-17T10:29:38.506Z,105.87
2018-12-17T10:32:04.347Z,101.37
2018-12-17T10:34:30.197Z,105.60
2018-12-17T10:36:55.918Z,102.77
2018-12-17T10:39:21.739Z,106.70
2018-12-17T10:41:48.142Z,102.77
2018-12-17T10:44:14.220Z,117.95
2018-12-17T10:46:39.979Z,108.63
2018-12-17T10:49:05.711Z,118.23
2018-12-17T10:51:32.137Z,104.97
2018-12-17T10:53:57.883Z,105.75
2018-12-17T10:56:23.632Z,113.93
2018-12-17T10:58:49.351Z,106.30
2018-12-17T11:01:21.469Z,113.10
2018-12-17T11:03:49.538Z,102.47
2018-12-17T11:06:16.731Z,112.57
2018-12-17T11:08:42.646Z,115.95
2018-12-17T11:11:08.374Z,119.07
2018-12-17T11:13:34.712Z,108.33
2018-12-17T11:16:01.177Z,111.15
2018-12-17T11:18:27.035Z,110.50
2018-12-17T11:20:52.767Z,110.40
2018-12-17T11:23:18.617Z,106.73
2018-12-17T11:25:44.433Z,97.90
2018-12-17T11:28:10.254Z,102.07
2018-12-17T11:30:36.315Z,97.60
2018-12-17T11:33:02.036Z,100.33
2018-12-17T11:35:27.888Z,106.63
2018-12-17T11:37:53.615Z,95.97
2018-12-17T11:40:19.339Z,98.20
2018-12-17T11:42:45.327Z,94.73
2018-12-17T11:45:11.199Z,96.30
2018-12-17T11:47:36.928Z,95.67
2018-12-17T11:50:04.279Z,94.00
2018-12-17T11:52:30.001Z,93.82
2018-12-17T11:54:55.851Z,89.63
2018-12-17T11:57:27.479Z,85.60
2018-12-17T11:59:53.247Z,91.10
2018-12-17T12:02:19.074Z,100.40
2018-12-17T12:04:44.806Z,102.20
2018-12-17T12:07:10.533Z,94.57
2018-12-17T12:09:36.260Z,86.93
2018-12-17T12:12:02.086Z,93.07
2018-12-17T12:14:27.806Z,91.70
2018-12-17T12:16:53.536Z,88.07
2018-12-17T12:19:19.272Z,93.63
2018-12-17T12:21:45.004Z,94.43
2018-12-17T12:24:10.723Z,98.83
2018-12-17T12:26:36.433Z,95.97
2018-12-17T12:29:02.276Z,97.50
2018-12-17T12:31:28.006Z,88.17
2018-12-17T12:33:53.824Z,87.63
2018-12-17T12:36:19.570Z,88.37
2018-12-17T12:38:45.407Z,95.70
2018-12-17T12:41:11.240Z,94.70
2018-12-17T12:43:37.071Z,97.07
2018-12-17T12:46:02.897Z,89.00
2018-12-17T12:48:28.620Z,91.53
2018-12-17T12:50:54.351Z,97.53
2018-12-17T12:55:52.709Z,100.15
2018-12-17T12:58:18.437Z,90.70
2018-12-17T13:00:44.159Z,85.40
2018-12-17T13:03:09.890Z,89.20
2018-12-17T13:05:35.621Z,88.67
2018-12-17T13:08:01.347Z,88.53
2018-12-17T13:10:27.170Z,92.57
2018-12-17T13:12:53.027Z,87.87
2018-12-17T13:15:18.946Z,85.20
2018-12-17T13:17:45.598Z,92.63
2018-12-17T13:20:11.628Z,98.45
2018-12-17T13:22:37.453Z,95.00
2018-12-17T13:25:04.186Z,90.23
2018-12-17T13:27:29.914Z,87.02
2018-12-17T13:29:55.623Z,90.27
2018-12-17T13:32:21.351Z,87.83
2018-12-17T13:34:47.095Z,91.23
2018-12-17T13:37:12.818Z,87.03
2018-12-17T13:39:38.838Z,89.13
2018-12-17T13:42:04.566Z,91.23
2018-12-17T13:44:30.280Z,89.40
2018-12-17T13:46:56.098Z,88.40
2018-12-17T13:49:21.958Z,97.77
2018-12-17T13:51:53.826Z,86.33
2018-12-17T13:54:19.546Z,89.67
2018-12-17T13:56:45.271Z,86.77
2018-12-17T13:59:11.017Z,94.37
2018-12-17T14:01:36.735Z,92.27
2018-12-17T14:04:02.574Z,87.87
2018-12-17T14:06:28.382Z,95.50
2018-12-17T14:08:54.205Z,97.83
2018-12-17T14:11:19.924Z,100.90
2018-12-17T14:13:45.743Z,101.53
2018-12-17T14:16:13.474Z,94.00
2018-12-17T14:18:45.357Z,98.55
2018-12-17T14:21:17.192Z,92.08
2018-12-17T14:23:42.918Z,98.37
2018-12-17T14:26:08.765Z,106.47
2018-12-17T14:28:34.485Z,94.87
2018-12-17T14:31:00.298Z,105.37
2018-12-17T14:33:26.011Z,92.23
2018-12-17T14:35:57.845Z,94.70
2018-12-17T14:38:23.604Z,105.92
2018-12-17T14:40:49.435Z,99.13
2018-12-17T14:43:15.307Z,96.13
2018-12-17T14:45:41.097Z,102.03
2018-12-17T14:48:06.935Z,143.23
2018-12-17T14:50:32.734Z,101.03
2018-12-17T14:53:05.490Z,106.73
2018-12-17T14:55:31.214Z,95.40
2018-12-17T14:57:57.030Z,87.90
2018-12-17T15:00:22.858Z,93.57
2018-12-17T15:02:48.590Z,95.83
2018-12-17T15:05:14.311Z,92.60
2018-12-17T15:07:40.020Z,82.00
2018-12-17T15:10:06.044Z,106.27
2018-12-17T15:12:31.855Z,93.03
2018-12-17T15:14:57.570Z,112.47
2018-12-17T15:17:23.374Z,109.50
2018-12-17T15:19:49.210Z,89.80
2018-12-17T15:22:15.019Z,91.90
2018-12-17T15:24:40.858Z,80.77
2018-12-17T15:27:06.674Z,80.07
2018-12-17T15:29:32.619Z,84.80
2018-12-17T15:31:58.434Z,101.07
2018-12-17T15:34:24.167Z,82.53
2018-12-17T15:36:49.890Z,88.33
2018-12-17T15:39:15.728Z,81.60
2018-12-17T15:41:41.429Z,80.23
2018-12-17T15:44:07.146Z,98.50
2018-12-17T15:46:32.880Z,73.23
2018-12-17T15:48:58.810Z,80.03
2018-12-17T15:51:24.522Z,79.33
2018-12-17T15:53:50.246Z,84.40
2018-12-17T15:56:15.955Z,84.27
2018-12-17T15:58:41.772Z,83.53
2018-12-17T16:01:07.605Z,85.63
2018-12-17T16:03:33.311Z,99.93
2018-12-17T16:05:59.038Z,97.60
2018-12-17T16:08:31.743Z,99.33
2018-12-17T16:10:57.573Z,106.20
2018-12-17T16:13:23.274Z,106.50
2018-12-17T16:15:49.098Z,111.73
2018-12-17T16:18:14.903Z,112.53
2018-12-17T16:20:40.658Z,108.30
2018-12-17T16:23:06.442Z,116.50
2018-12-17T16:25:32.366Z,112.10
2018-12-17T16:27:58.066Z,114.83
2018-12-17T16:30:23.782Z,103.47
2018-12-17T16:32:49.603Z,120.23
2018-12-17T16:35:15.322Z,116.87
2018-12-17T16:37:47.951Z,115.33
2018-12-17T16:40:13.793Z,113.90
2018-12-17T16:42:39.670Z,112.00
2018-12-17T16:45:06.602Z,105.57
2018-12-17T16:47:32.421Z,110.22
2018-12-17T16:49:58.178Z,114.60
2018-12-17T16:52:24.002Z,104.60
2018-12-17T16:54:49.714Z,116.87
2018-12-17T16:57:15.425Z,117.93
2018-12-17T16:59:41.145Z,115.07
2018-12-17T17:02:06.969Z,114.07
2018-12-17T17:04:32.678Z,117.63
2018-12-17T17:06:58.393Z,113.33
2018-12-17T17:09:24.214Z,117.27
2018-12-17T17:11:50.134Z,115.53
2018-12-17T17:14:15.842Z,119.60
2018-12-17T17:16:41.692Z,122.33
2018-12-17T17:19:07.516Z,114.43
2018-12-17T17:21:33.234Z,111.17
2018-12-17T17:23:59.051Z,115.33
2018-12-17T17:26:24.776Z,115.30
2018-12-17T17:28:50.588Z,108.53
2018-12-17T17:31:16.321Z,109.40
2018-12-17T17:33:49.006Z,112.73
2018-12-17T17:36:21.722Z,120.35
2018-12-17T17:38:47.439Z,108.47
2018-12-17T17:41:13.146Z,97.23
2018-12-17T17:43:38.850Z,102.43
2018-12-17T17:46:04.680Z,109.23
2018-12-17T17:48:30.403Z,100.80
2018-12-17T17:50:56.263Z,108.97
2018-12-17T17:53:22.191Z,102.63
2018-12-17T17:55:47.931Z,93.47
2018-12-17T17:58:13.661Z,112.00
2018-12-17T18:00:39.382Z,105.77
2018-12-17T18:03:05.117Z,106.63
2018-12-17T18:05:30.975Z,103.77
2018-12-17T18:07:56.703Z,114.93
2018-12-17T18:10:22.414Z,112.40
2018-12-17T18:12:48.130Z,113.93
2018-12-17T18:15:13.954Z,130.20
2018-12-17T18:17:39.710Z,114.60
2018-12-17T18:20:05.542Z,119.97
2018-12-17T18:22:31.759Z,137.10
2018-12-17T18:24:57.495Z,127.70
2018-12-17T18:27:23.226Z,139.00
2018-12-17T18:29:48.946Z,133.13
2018-12-17T18:32:14.929Z,143.57
2018-12-17T18:34:40.794Z,135.60
2018-12-17T18:37:06.606Z,142.30
2018-12-17T18:39:32.439Z,150.83
2018-12-17T18:41:58.258Z,153.40
2018-12-17T18:44:24.081Z,147.23
2018-12-17T18:46:50.012Z,167.93
2018-12-17T18:49:15.869Z,136.77
2018-12-17T18:51:41.690Z,151.77
2018-12-17T18:54:07.526Z,161.27
2018-12-17T18:56:33.347Z,139.37
2018-12-17T18:58:59.079Z,159.60
2018-12-17T19:01:24.898Z,171.73
2018-12-17T19:03:50.624Z,172.57
2018-12-17T19:06:16.452Z,156.33
2018-12-17T19:08:42.228Z,148.60
2018-12-17T19:11:08.006Z,175.00
2018-12-17T19:13:33.734Z,170.13
2018-12-17T19:15:59.662Z,148.50
2018-12-17T19:18:25.490Z,167.03
2018-12-17T19:20:51.280Z,158.07
2018-12-17T19:23:17.003Z,145.80
2018-12-17T19:25:42.760Z,152.53
2018-12-17T19:28:08.555Z,147.17
2018-12-17T19:30:34.270Z,157.40
2018-12-17T19:33:00.120Z,154.87
2018-12-17T19:35:25.850Z,148.30
2018-12-17T19:37:51.562Z,150.67
2018-12-17T19:40:17.387Z,159.70
2018-12-17T19:42:43.211Z,151.43
2018-12-17T19:45:09.173Z,149.53
2018-12-17T19:47:34.998Z,156.40
2018-12-17T19:50:00.726Z,192.03
2018-12-17T19:52:26.490Z,158.30
2018-12-17T19:54:52.214Z,168.93
2018-12-17T19:57:17.930Z,162.17
2018-12-17T19:59:43.697Z,173.30
2018-12-17T20:02:09.562Z,144.90
2018-12-17T20:04:41.541Z,156.63
2018-12-17T20:07:07.290Z,162.32
2018-12-17T20:09:33.042Z,165.60
2018-12-17T20:11:58.875Z,155.50
2018-12-17T20:14:24.756Z,131.13
2018-12-17T20:16:50.470Z,148.87
2018-12-17T20:19:16.194Z,171.37
2018-12-17T20:21:42.015Z,173.33
2018-12-17T20:24:07.744Z,151.90
2018-12-17T20:26:33.563Z,147.63
2018-12-17T20:28:59.275Z,157.87
2018-12-17T20:31:24.991Z,151.73
2018-12-17T20:33:50.714Z,146.57
2018-12-17T20:36:16.438Z,161.63
2018-12-17T20:38:42.159Z,158.07
2018-12-17T20:41:07.886Z,136.77
2018-12-17T20:43:33.699Z,149.17
2018-12-17T20:45:59.441Z,154.87
2018-12-17T20:48:25.158Z,134.03
2018-12-17T20:50:51.020Z,180.83
2018-12-17T20:53:16.918Z,174.83
2018-12-17T20:55:42.887Z,143.03
2018-12-17T20:58:10.404Z,143.93
2018-12-17T21:00:36.563Z,148.62
2018-12-17T21:03:02.768Z,143.70
2018-12-17T21:05:28.611Z,135.82
2018-12-17T21:07:54.545Z,158.87
2018-12-17T21:10:20.388Z,127.07
2018-12-17T21:12:46.142Z,144.10
2018-12-17T21:15:12.073Z,128.67
2018-12-17T21:17:37.908Z,138.13
2018-12-17T21:20:04.455Z,119.30
2018-12-17T21:22:30.621Z,120.28
2018-12-17T21:24:56.369Z,108.78
2018-12-17T21:27:22.093Z,129.70
2018-12-17T21:29:48.257Z,139.73
2018-12-17T21:32:13.992Z,127.22
2018-12-17T21:34:39.802Z,120.83
2018-12-17T21:37:05.598Z,129.40
2018-12-17T21:39:31.572Z,107.67
2018-12-17T21:41:57.740Z,115.40
2018-12-17T21:44:23.919Z,112.40
2018-12-17T21:46:49.797Z,117.37
2018-12-17T21:49:16.144Z,108.43
2018-12-17T21:51:41.875Z,118.95
2018-12-17T21:54:07.602Z,100.50
2018-12-17T21:56:33.309Z,89.47
2018-12-17T21:58:59.035Z,93.00
2018-12-17T22:01:24.746Z,97.67
2018-12-17T22:03:50.470Z,86.73
2018-12-17T22:06:16.750Z,75.97
2018-12-17T22:08:43.059Z,95.85
2018-12-17T22:11:09.319Z,79.97
2018-12-17T22:13:35.259Z,78.47
2018-12-17T22:16:01.330Z,90.73
2018-12-17T22:18:27.923Z,87.50
2018-12-17T22:20:54.255Z,83.55
2018-12-17T22:23:20.130Z,90.65
2018-12-17T22:25:45.913Z,88.97
2018-12-17T22:28:12.016Z,89.30
2018-12-17T22:30:38.165Z,95.70
2018-12-17T22:33:04.510Z,88.62
2018-12-17T22:35:30.632Z,93.72
2018-12-17T22:37:56.844Z,90.12
2018-12-17T22:40:23.148Z,94.17
2018-12-17T22:42:49.243Z,89.30
2018-12-17T22:45:15.793Z,92.82
2018-12-17T22:47:41.592Z,96.55
2018-12-17T22:50:08.241Z,79.67
2018-12-17T22:52:34.416Z,103.38
2018-12-17T22:55:00.533Z,97.27
2018-12-17T22:57:26.581Z,96.80
2018-12-17T22:59:52.577Z,76.80
2018-12-17T23:02:18.837Z,95.47
2018-12-17T23:04:45.970Z,96.47
2018-12-17T23:07:12.410Z,98.35
2018-12-17T23:09:50.738Z,96.37
2018-12-17T23:12:29.057Z,106.40
2018-12-17T23:15:07.272Z,120.42
2018-12-17T23:17:38.786Z,106.30
2018-12-17T23:20:05.883Z,150.80
2018-12-17T23:22:31.797Z,125.70
2018-12-17T23:24:57.566Z,123.00
2018-12-17T23:27:23.398Z,132.70
2018-12-17T23:29:49.496Z,151.53
2018-12-17T23:32:15.504Z,105.20
2018-12-17T23:34:41.326Z,115.37
2018-12-17T23:37:07.043Z,144.53
2018-12-17T23:39:33.284Z,112.60
2018-12-17T23:42:00.646Z,128.53
2018-12-17T23:44:26.504Z,173.72
2018-12-17T23:46:52.441Z,202.23
2018-12-17T23:49:18.153Z,183.83
2018-12-17T23:51:43.984Z,192.53
2018-12-17T23:54:09.798Z,154.63
2018-12-17T23:56:35.505Z,174.70
2018-12-17T23:59:01.222Z,209.47
